Albuquerque (West), New Mexico
Current Conditions -  °F | °C
As of 3:55 AM on Friday 19 Dec 2014 (Local Time) from KAEG Reporting Station
Clear Clear  
Wind Chill: 19°   Ceiling: Unl
Heat Index: 27°   Visibility: 10mi
Dew Point: 24°   Wind: 7mph
Humidity: 87%   Direction: 330°NNW
Pressure: 30.17"   Gusts: NA
Location:  35.15°N, 106.8°W
Report Text: KAEG 191055Z AUTO 33006KT 10SM CLR M03/M05 A3017 RMK AO2 T10281047
Loading
Personal Weather Stations






























Interactive Weather Map New forecast layout! Learn more

10-Day Weather Forecast

Advertisements
Track Severe Weather on mobile